sensor_id;sensor_type;location;lat;lon;timestamp;temperature;humidity
81210;DHT22;70685;52.496;13.420;2023-08-06T00:01:25;18.80;70.20
81210;DHT22;70685;52.496;13.420;2023-08-06T00:03:51;18.70;70.70
81210;DHT22;70685;52.496;13.420;2023-08-06T00:06:16;18.60;71.00
81210;DHT22;70685;52.496;13.420;2023-08-06T00:08:45;18.60;71.20
81210;DHT22;70685;52.496;13.420;2023-08-06T00:11:10;18.60;71.30
81210;DHT22;70685;52.496;13.420;2023-08-06T00:13:36;18.60;71.30
81210;DHT22;70685;52.496;13.420;2023-08-06T00:16:09;18.70;71.20
81210;DHT22;70685;52.496;13.420;2023-08-06T00:18:34;18.60;71.10
81210;DHT22;70685;52.496;13.420;2023-08-06T00:21:03;18.60;71.50
81210;DHT22;70685;52.496;13.420;2023-08-06T00:23:31;18.50;71.90
81210;DHT22;70685;52.496;13.420;2023-08-06T00:25:56;18.50;71.90
81210;DHT22;70685;52.496;13.420;2023-08-06T00:28:22;18.60;71.60
81210;DHT22;70685;52.496;13.420;2023-08-06T00:30:57;18.60;71.80
81210;DHT22;70685;52.496;13.420;2023-08-06T00:33:24;18.60;71.70
81210;DHT22;70685;52.496;13.420;2023-08-06T00:35:52;18.70;71.70
81210;DHT22;70685;52.496;13.420;2023-08-06T00:38:18;18.70;71.60
81210;DHT22;70685;52.496;13.420;2023-08-06T00:40:43;18.60;71.80
81210;DHT22;70685;52.496;13.420;2023-08-06T00:43:09;18.60;71.80
81210;DHT22;70685;52.496;13.420;2023-08-06T00:45:38;18.60;72.10
81210;DHT22;70685;52.496;13.420;2023-08-06T00:48:06;18.50;72.40
81210;DHT22;70685;52.496;13.420;2023-08-06T00:50:32;18.50;72.60
81210;DHT22;70685;52.496;13.420;2023-08-06T00:53:01;18.50;72.80
81210;DHT22;70685;52.496;13.420;2023-08-06T00:55:27;18.50;72.70
81210;DHT22;70685;52.496;13.420;2023-08-06T00:57:53;18.50;72.80
81210;DHT22;70685;52.496;13.420;2023-08-06T01:00:22;18.40;73.00
81210;DHT22;70685;52.496;13.420;2023-08-06T01:02:51;18.40;73.20
81210;DHT22;70685;52.496;13.420;2023-08-06T01:05:17;18.40;73.40
81210;DHT22;70685;52.496;13.420;2023-08-06T01:15:56;18.10;74.40
81210;DHT22;70685;52.496;13.420;2023-08-06T01:18:23;18.10;74.50
81210;DHT22;70685;52.496;13.420;2023-08-06T01:20:51;18.00;74.80
81210;DHT22;70685;52.496;13.420;2023-08-06T01:23:18;18.00;75.00
81210;DHT22;70685;52.496;13.420;2023-08-06T01:31:14;18.10;74.50
81210;DHT22;70685;52.496;13.420;2023-08-06T01:33:46;18.10;74.70
81210;DHT22;70685;52.496;13.420;2023-08-06T01:36:15;18.00;74.90
81210;DHT22;70685;52.496;13.420;2023-08-06T01:38:41;18.10;74.70
81210;DHT22;70685;52.496;13.420;2023-08-06T01:41:06;18.10;74.60
81210;DHT22;70685;52.496;13.420;2023-08-06T01:43:32;18.10;74.70
81210;DHT22;70685;52.496;13.420;2023-08-06T01:46:00;18.20;74.30
81210;DHT22;70685;52.496;13.420;2023-08-06T01:48:25;18.20;74.50
81210;DHT22;70685;52.496;13.420;2023-08-06T01:50:53;18.00;75.00
81210;DHT22;70685;52.496;13.420;2023-08-06T01:53:21;18.00;75.70
81210;DHT22;70685;52.496;13.420;2023-08-06T01:55:50;18.00;75.80
81210;DHT22;70685;52.496;13.420;2023-08-06T01:58:16;17.80;76.20
81210;DHT22;70685;52.496;13.420;2023-08-06T02:00:41;17.90;76.60
81210;DHT22;70685;52.496;13.420;2023-08-06T02:03:07;17.80;76.60
81210;DHT22;70685;52.496;13.420;2023-08-06T02:05:35;17.70;77.00
81210;DHT22;70685;52.496;13.420;2023-08-06T02:08:01;17.80;77.90
81210;DHT22;70685;52.496;13.420;2023-08-06T02:10:29;17.70;77.00
81210;DHT22;70685;52.496;13.420;2023-08-06T02:12:59;17.80;77.40
81210;DHT22;70685;52.496;13.420;2023-08-06T02:15:25;17.70;77.40
81210;DHT22;70685;52.496;13.420;2023-08-06T02:17:51;17.70;77.70
81210;DHT22;70685;52.496;13.420;2023-08-06T02:20:16;17.70;78.00
81210;DHT22;70685;52.496;13.420;2023-08-06T02:22:44;17.50;78.30
81210;DHT22;70685;52.496;13.420;2023-08-06T02:25:10;17.40;78.90
81210;DHT22;70685;52.496;13.420;2023-08-06T02:27:38;17.40;78.80
81210;DHT22;70685;52.496;13.420;2023-08-06T02:30:06;17.40;79.10
81210;DHT22;70685;52.496;13.420;2023-08-06T02:32:34;17.40;79.10
81210;DHT22;70685;52.496;13.420;2023-08-06T02:35:03;17.50;79.00
81210;DHT22;70685;52.496;13.420;2023-08-06T02:37:29;17.50;79.10
81210;DHT22;70685;52.496;13.420;2023-08-06T02:39:57;17.50;78.70
81210;DHT22;70685;52.496;13.420;2023-08-06T02:42:25;17.50;78.60
81210;DHT22;70685;52.496;13.420;2023-08-06T02:44:53;17.40;78.60
81210;DHT22;70685;52.496;13.420;2023-08-06T02:47:24;17.50;78.30
81210;DHT22;70685;52.496;13.420;2023-08-06T02:49:52;17.50;78.50
81210;DHT22;70685;52.496;13.420;2023-08-06T02:52:18;17.40;78.40
81210;DHT22;70685;52.496;13.420;2023-08-06T02:54:44;17.40;78.80
81210;DHT22;70685;52.496;13.420;2023-08-06T02:57:09;17.40;78.50
81210;DHT22;70685;52.496;13.420;2023-08-06T02:59:35;17.40;78.80
81210;DHT22;70685;52.496;13.420;2023-08-06T03:02:03;17.30;78.70
81210;DHT22;70685;52.496;13.420;2023-08-06T03:04:28;17.20;78.90
81210;DHT22;70685;52.496;13.420;2023-08-06T03:06:54;17.20;78.90
81210;DHT22;70685;52.496;13.420;2023-08-06T03:09:22;17.20;79.20
81210;DHT22;70685;52.496;13.420;2023-08-06T03:11:48;17.20;79.50
81210;DHT22;70685;52.496;13.420;2023-08-06T03:14:13;17.30;78.70
81210;DHT22;70685;52.496;13.420;2023-08-06T03:16:39;17.30;78.90
81210;DHT22;70685;52.496;13.420;2023-08-06T03:19:05;17.20;79.30
81210;DHT22;70685;52.496;13.420;2023-08-06T03:21:33;17.20;79.30
81210;DHT22;70685;52.496;13.420;2023-08-06T03:23:58;17.20;79.70
81210;DHT22;70685;52.496;13.420;2023-08-06T03:26:26;17.20;79.60
81210;DHT22;70685;52.496;13.420;2023-08-06T03:28:52;17.10;79.70
81210;DHT22;70685;52.496;13.420;2023-08-06T03:31:20;17.10;79.80
81210;DHT22;70685;52.496;13.420;2023-08-06T03:33:45;17.00;80.00
81210;DHT22;70685;52.496;13.420;2023-08-06T03:36:11;17.00;80.20
81210;DHT22;70685;52.496;13.420;2023-08-06T03:38:37;17.00;80.20
81210;DHT22;70685;52.496;13.420;2023-08-06T03:41:02;17.00;80.00
81210;DHT22;70685;52.496;13.420;2023-08-06T03:43:30;17.00;80.10
81210;DHT22;70685;52.496;13.420;2023-08-06T03:45:56;16.90;80.40
81210;DHT22;70685;52.496;13.420;2023-08-06T03:48:22;16.80;80.60
81210;DHT22;70685;52.496;13.420;2023-08-06T03:50:47;16.90;80.80
81210;DHT22;70685;52.496;13.420;2023-08-06T03:53:13;16.90;81.10
81210;DHT22;70685;52.496;13.420;2023-08-06T03:55:39;16.90;81.00
81210;DHT22;70685;52.496;13.420;2023-08-06T03:58:04;16.90;80.80
81210;DHT22;70685;52.496;13.420;2023-08-06T04:00:32;16.80;81.20
81210;DHT22;70685;52.496;13.420;2023-08-06T04:03:00;16.80;81.30
81210;DHT22;70685;52.496;13.420;2023-08-06T04:05:26;16.80;81.70
81210;DHT22;70685;52.496;13.420;2023-08-06T04:07:53;16.80;81.80
81210;DHT22;70685;52.496;13.420;2023-08-06T04:10:21;16.80;81.60
81210;DHT22;70685;52.496;13.420;2023-08-06T04:12:49;16.80;81.70
81210;DHT22;70685;52.496;13.420;2023-08-06T04:15:15;16.80;81.70
81210;DHT22;70685;52.496;13.420;2023-08-06T04:17:42;16.80;81.40
81210;DHT22;70685;52.496;13.420;2023-08-06T04:20:11;16.80;81.70
81210;DHT22;70685;52.496;13.420;2023-08-06T04:22:38;16.80;81.90
81210;DHT22;70685;52.496;13.420;2023-08-06T04:25:07;16.80;81.70
81210;DHT22;70685;52.496;13.420;2023-08-06T04:27:37;16.90;81.90
81210;DHT22;70685;52.496;13.420;2023-08-06T04:30:12;17.00;81.10
81210;DHT22;70685;52.496;13.420;2023-08-06T04:32:40;17.10;80.90
81210;DHT22;70685;52.496;13.420;2023-08-06T04:35:06;17.20;80.90
81210;DHT22;70685;52.496;13.420;2023-08-06T04:37:32;17.20;80.50
81210;DHT22;70685;52.496;13.420;2023-08-06T04:39:58;17.20;80.30
81210;DHT22;70685;52.496;13.420;2023-08-06T04:42:23;17.20;80.50
81210;DHT22;70685;52.496;13.420;2023-08-06T04:44:50;17.30;80.20
81210;DHT22;70685;52.496;13.420;2023-08-06T04:47:17;17.30;80.20
81210;DHT22;70685;52.496;13.420;2023-08-06T04:49:43;17.30;80.10
81210;DHT22;70685;52.496;13.420;2023-08-06T04:52:14;17.30;80.00
81210;DHT22;70685;52.496;13.420;2023-08-06T04:54:39;17.40;79.40
81210;DHT22;70685;52.496;13.420;2023-08-06T04:57:05;17.40;79.10
81210;DHT22;70685;52.496;13.420;2023-08-06T04:59:31;17.40;78.70
81210;DHT22;70685;52.496;13.420;2023-08-06T05:01:58;17.50;78.80
81210;DHT22;70685;52.496;13.420;2023-08-06T05:04:24;17.60;78.50
81210;DHT22;70685;52.496;13.420;2023-08-06T05:06:52;17.60;78.80
81210;DHT22;70685;52.496;13.420;2023-08-06T05:09:18;17.60;78.90
81210;DHT22;70685;52.496;13.420;2023-08-06T05:11:47;17.60;78.50
81210;DHT22;70685;52.496;13.420;2023-08-06T05:14:15;17.70;78.30
81210;DHT22;70685;52.496;13.420;2023-08-06T05:16:43;17.60;78.00
81210;DHT22;70685;52.496;13.420;2023-08-06T05:19:08;17.50;79.00
81210;DHT22;70685;52.496;13.420;2023-08-06T05:21:34;17.40;78.80
81210;DHT22;70685;52.496;13.420;2023-08-06T05:24:00;17.30;78.80
81210;DHT22;70685;52.496;13.420;2023-08-06T05:26:25;17.30;79.50
81210;DHT22;70685;52.496;13.420;2023-08-06T05:28:51;17.40;79.70
81210;DHT22;70685;52.496;13.420;2023-08-06T05:31:17;17.50;80.20
81210;DHT22;70685;52.496;13.420;2023-08-06T05:33:42;17.60;78.40
81210;DHT22;70685;52.496;13.420;2023-08-06T05:36:08;17.60;78.10
81210;DHT22;70685;52.496;13.420;2023-08-06T05:38:36;17.60;78.20
81210;DHT22;70685;52.496;13.420;2023-08-06T05:41:06;17.60;78.50
81210;DHT22;70685;52.496;13.420;2023-08-06T05:43:31;17.70;77.50
81210;DHT22;70685;52.496;13.420;2023-08-06T05:45:57;17.80;77.40
81210;DHT22;70685;52.496;13.420;2023-08-06T05:48:25;17.90;77.10
81210;DHT22;70685;52.496;13.420;2023-08-06T05:50:52;17.90;76.70
81210;DHT22;70685;52.496;13.420;2023-08-06T05:53:17;17.90;76.40
81210;DHT22;70685;52.496;13.420;2023-08-06T05:55:43;17.90;77.10
81210;DHT22;70685;52.496;13.420;2023-08-06T05:58:14;17.80;77.00
81210;DHT22;70685;52.496;13.420;2023-08-06T06:00:45;17.80;76.50
81210;DHT22;70685;52.496;13.420;2023-08-06T06:03:15;17.80;77.10
81210;DHT22;70685;52.496;13.420;2023-08-06T06:05:41;17.80;76.70
81210;DHT22;70685;52.496;13.420;2023-08-06T06:08:11;17.90;76.00
81210;DHT22;70685;52.496;13.420;2023-08-06T06:10:37;18.00;75.90
81210;DHT22;70685;52.496;13.420;2023-08-06T06:13:05;18.00;75.70
81210;DHT22;70685;52.496;13.420;2023-08-06T06:15:30;18.10;75.60
81210;DHT22;70685;52.496;13.420;2023-08-06T06:17:58;18.20;76.10
81210;DHT22;70685;52.496;13.420;2023-08-06T06:20:24;18.30;75.20
81210;DHT22;70685;52.496;13.420;2023-08-06T06:22:50;18.40;75.50
81210;DHT22;70685;52.496;13.420;2023-08-06T06:25:15;18.40;75.10
81210;DHT22;70685;52.496;13.420;2023-08-06T06:27:41;18.50;74.90
81210;DHT22;70685;52.496;13.420;2023-08-06T06:30:07;18.60;74.80
81210;DHT22;70685;52.496;13.420;2023-08-06T06:32:33;18.60;75.10
81210;DHT22;70685;52.496;13.420;2023-08-06T06:34:59;18.60;75.20
81210;DHT22;70685;52.496;13.420;2023-08-06T06:37:25;18.60;75.20
81210;DHT22;70685;52.496;13.420;2023-08-06T06:39:53;18.70;74.40
81210;DHT22;70685;52.496;13.420;2023-08-06T06:42:19;18.70;74.40
81210;DHT22;70685;52.496;13.420;2023-08-06T06:44:48;18.80;74.80
81210;DHT22;70685;52.496;13.420;2023-08-06T06:47:17;18.80;75.50
81210;DHT22;70685;52.496;13.420;2023-08-06T06:49:42;18.70;75.80
81210;DHT22;70685;52.496;13.420;2023-08-06T06:52:08;18.70;76.00
81210;DHT22;70685;52.496;13.420;2023-08-06T06:54:34;18.70;76.10
81210;DHT22;70685;52.496;13.420;2023-08-06T06:56:59;18.80;75.30
81210;DHT22;70685;52.496;13.420;2023-08-06T06:59:29;18.90;74.50
81210;DHT22;70685;52.496;13.420;2023-08-06T07:01:55;18.90;74.90
81210;DHT22;70685;52.496;13.420;2023-08-06T07:04:25;18.90;75.10
81210;DHT22;70685;52.496;13.420;2023-08-06T07:06:51;19.00;74.30
81210;DHT22;70685;52.496;13.420;2023-08-06T07:09:17;19.10;73.40
81210;DHT22;70685;52.496;13.420;2023-08-06T07:11:43;19.10;73.10
81210;DHT22;70685;52.496;13.420;2023-08-06T07:14:09;19.10;72.80
81210;DHT22;70685;52.496;13.420;2023-08-06T07:16:37;19.10;74.20
81210;DHT22;70685;52.496;13.420;2023-08-06T07:19:03;19.10;74.30
81210;DHT22;70685;52.496;13.420;2023-08-06T07:21:33;19.10;75.10
81210;DHT22;70685;52.496;13.420;2023-08-06T07:24:01;19.10;74.10
81210;DHT22;70685;52.496;13.420;2023-08-06T07:26:27;19.20;73.50
81210;DHT22;70685;52.496;13.420;2023-08-06T07:28:52;19.40;72.70
81210;DHT22;70685;52.496;13.420;2023-08-06T07:31:18;19.50;71.00
81210;DHT22;70685;52.496;13.420;2023-08-06T07:33:44;19.60;70.90
81210;DHT22;70685;52.496;13.420;2023-08-06T07:36:19;19.50;71.30
81210;DHT22;70685;52.496;13.420;2023-08-06T07:38:51;19.40;71.50
81210;DHT22;70685;52.496;13.420;2023-08-06T07:41:25;19.30;72.60
81210;DHT22;70685;52.496;13.420;2023-08-06T07:43:50;19.40;71.80
81210;DHT22;70685;52.496;13.420;2023-08-06T07:46:20;19.30;71.80
81210;DHT22;70685;52.496;13.420;2023-08-06T07:48:51;19.30;71.60
81210;DHT22;70685;52.496;13.420;2023-08-06T07:51:16;19.30;71.40
81210;DHT22;70685;52.496;13.420;2023-08-06T07:53:42;19.20;72.00
81210;DHT22;70685;52.496;13.420;2023-08-06T07:56:10;19.20;71.60
81210;DHT22;70685;52.496;13.420;2023-08-06T07:58:38;19.10;72.10
81210;DHT22;70685;52.496;13.420;2023-08-06T08:01:08;19.10;72.20
81210;DHT22;70685;52.496;13.420;2023-08-06T08:03:36;19.00;72.60
81210;DHT22;70685;52.496;13.420;2023-08-06T08:06:04;18.90;72.70
81210;DHT22;70685;52.496;13.420;2023-08-06T08:08:30;18.90;73.90
81210;DHT22;70685;52.496;13.420;2023-08-06T08:10:58;18.90;73.60
81210;DHT22;70685;52.496;13.420;2023-08-06T08:13:26;18.90;73.00
81210;DHT22;70685;52.496;13.420;2023-08-06T08:15:59;18.80;74.00
81210;DHT22;70685;52.496;13.420;2023-08-06T08:18:27;18.90;73.60
81210;DHT22;70685;52.496;13.420;2023-08-06T08:20:57;18.80;74.30
81210;DHT22;70685;52.496;13.420;2023-08-06T08:23:25;18.90;74.40
81210;DHT22;70685;52.496;13.420;2023-08-06T08:25:53;19.00;74.00
81210;DHT22;70685;52.496;13.420;2023-08-06T08:28:19;19.10;73.00
81210;DHT22;70685;52.496;13.420;2023-08-06T08:30:47;19.30;72.50
81210;DHT22;70685;52.496;13.420;2023-08-06T08:33:13;19.30;73.80
81210;DHT22;70685;52.496;13.420;2023-08-06T08:35:39;19.50;73.00
81210;DHT22;70685;52.496;13.420;2023-08-06T08:38:05;19.60;73.20
81210;DHT22;70685;52.496;13.420;2023-08-06T08:40:46;19.60;72.80
81210;DHT22;70685;52.496;13.420;2023-08-06T08:43:21;19.80;72.10
81210;DHT22;70685;52.496;13.420;2023-08-06T08:45:51;19.90;73.30
81210;DHT22;70685;52.496;13.420;2023-08-06T08:48:18;20.10;71.40
81210;DHT22;70685;52.496;13.420;2023-08-06T08:50:45;20.10;71.20
81210;DHT22;70685;52.496;13.420;2023-08-06T08:53:14;20.20;70.40
81210;DHT22;70685;52.496;13.420;2023-08-06T08:55:46;20.30;70.30
81210;DHT22;70685;52.496;13.420;2023-08-06T08:58:12;20.50;69.70
81210;DHT22;70685;52.496;13.420;2023-08-06T09:00:40;20.50;70.10
81210;DHT22;70685;52.496;13.420;2023-08-06T09:03:09;20.60;69.50
81210;DHT22;70685;52.496;13.420;2023-08-06T09:05:35;20.60;70.10
81210;DHT22;70685;52.496;13.420;2023-08-06T09:08:04;20.60;70.30
81210;DHT22;70685;52.496;13.420;2023-08-06T09:10:31;20.70;70.10
81210;DHT22;70685;52.496;13.420;2023-08-06T09:12:57;20.80;69.80
81210;DHT22;70685;52.496;13.420;2023-08-06T09:15:26;20.80;69.40
81210;DHT22;70685;52.496;13.420;2023-08-06T09:17:53;20.90;69.90
81210;DHT22;70685;52.496;13.420;2023-08-06T09:20:21;21.00;69.20
81210;DHT22;70685;52.496;13.420;2023-08-06T09:22:47;21.00;69.00
81210;DHT22;70685;52.496;13.420;2023-08-06T09:25:24;21.00;68.10
81210;DHT22;70685;52.496;13.420;2023-08-06T09:27:51;21.10;68.70
81210;DHT22;70685;52.496;13.420;2023-08-06T09:30:30;21.10;68.70
81210;DHT22;70685;52.496;13.420;2023-08-06T09:32:59;21.20;69.20
81210;DHT22;70685;52.496;13.420;2023-08-06T09:35:31;21.10;68.10
81210;DHT22;70685;52.496;13.420;2023-08-06T09:38:09;21.10;68.20
81210;DHT22;70685;52.496;13.420;2023-08-06T09:40:35;21.10;67.70
81210;DHT22;70685;52.496;13.420;2023-08-06T09:43:01;21.00;69.00
81210;DHT22;70685;52.496;13.420;2023-08-06T09:45:34;21.00;68.60
81210;DHT22;70685;52.496;13.420;2023-08-06T09:48:09;21.00;67.80
81210;DHT22;70685;52.496;13.420;2023-08-06T09:50:40;21.10;67.50
81210;DHT22;70685;52.496;13.420;2023-08-06T09:53:07;21.10;67.70
81210;DHT22;70685;52.496;13.420;2023-08-06T09:55:36;21.00;68.10
81210;DHT22;70685;52.496;13.420;2023-08-06T09:58:04;21.00;68.20
81210;DHT22;70685;52.496;13.420;2023-08-06T10:00:31;21.00;68.70
81210;DHT22;70685;52.496;13.420;2023-08-06T10:03:00;20.90;68.30
81210;DHT22;70685;52.496;13.420;2023-08-06T10:05:26;20.90;68.90
81210;DHT22;70685;52.496;13.420;2023-08-06T10:07:52;20.80;69.70
81210;DHT22;70685;52.496;13.420;2023-08-06T10:10:19;20.80;69.10
81210;DHT22;70685;52.496;13.420;2023-08-06T10:12:52;20.70;70.10
81210;DHT22;70685;52.496;13.420;2023-08-06T10:15:24;20.60;70.50
81210;DHT22;70685;52.496;13.420;2023-08-06T10:17:53;20.40;71.00
81210;DHT22;70685;52.496;13.420;2023-08-06T10:20:22;20.30;71.30
81210;DHT22;70685;52.496;13.420;2023-08-06T10:23:08;20.20;71.50
81210;DHT22;70685;52.496;13.420;2023-08-06T10:25:34;19.90;71.70
81210;DHT22;70685;52.496;13.420;2023-08-06T10:28:09;19.80;72.50
81210;DHT22;70685;52.496;13.420;2023-08-06T10:30:45;19.60;74.00
81210;DHT22;70685;52.496;13.420;2023-08-06T10:33:16;19.50;74.80
81210;DHT22;70685;52.496;13.420;2023-08-06T10:35:46;19.40;74.70
81210;DHT22;70685;52.496;13.420;2023-08-06T10:38:20;19.40;75.50
81210;DHT22;70685;52.496;13.420;2023-08-06T10:43:29;19.60;73.40
81210;DHT22;70685;52.496;13.420;2023-08-06T10:45:56;19.70;72.30
81210;DHT22;70685;52.496;13.420;2023-08-06T10:51:02;19.90;72.50
81210;DHT22;70685;52.496;13.420;2023-08-06T10:53:30;19.90;72.50
81210;DHT22;70685;52.496;13.420;2023-08-06T10:55:57;19.90;71.30
81210;DHT22;70685;52.496;13.420;2023-08-06T10:58:23;19.90;70.40
81210;DHT22;70685;52.496;13.420;2023-08-06T11:00:48;20.00;70.50
81210;DHT22;70685;52.496;13.420;2023-08-06T11:03:14;19.90;70.00
81210;DHT22;70685;52.496;13.420;2023-08-06T11:05:40;20.00;71.20
81210;DHT22;70685;52.496;13.420;2023-08-06T11:08:06;20.10;70.30
81210;DHT22;70685;52.496;13.420;2023-08-06T11:10:35;20.20;70.30
81210;DHT22;70685;52.496;13.420;2023-08-06T11:13:01;20.40;70.30
81210;DHT22;70685;52.496;13.420;2023-08-06T11:15:30;20.50;70.00
81210;DHT22;70685;52.496;13.420;2023-08-06T11:17:58;20.50;71.10
81210;DHT22;70685;52.496;13.420;2023-08-06T11:20:28;20.50;69.20
81210;DHT22;70685;52.496;13.420;2023-08-06T11:22:53;20.60;69.80
81210;DHT22;70685;52.496;13.420;2023-08-06T11:25:20;20.60;69.30
81210;DHT22;70685;52.496;13.420;2023-08-06T11:27:47;20.60;68.80
81210;DHT22;70685;52.496;13.420;2023-08-06T11:30:14;20.70;68.70
81210;DHT22;70685;52.496;13.420;2023-08-06T11:32:47;20.70;67.10
81210;DHT22;70685;52.496;13.420;2023-08-06T11:35:13;20.80;66.60
81210;DHT22;70685;52.496;13.420;2023-08-06T11:37:43;20.80;66.80
81210;DHT22;70685;52.496;13.420;2023-08-06T11:40:14;20.70;68.00
81210;DHT22;70685;52.496;13.420;2023-08-06T11:42:42;20.70;67.90
81210;DHT22;70685;52.496;13.420;2023-08-06T11:45:16;20.80;68.10
81210;DHT22;70685;52.496;13.420;2023-08-06T11:47:50;20.90;68.10
81210;DHT22;70685;52.496;13.420;2023-08-06T11:50:25;20.90;67.60
81210;DHT22;70685;52.496;13.420;2023-08-06T11:52:59;20.90;68.80
81210;DHT22;70685;52.496;13.420;2023-08-06T11:55:28;20.90;68.90
81210;DHT22;70685;52.496;13.420;2023-08-06T11:57:54;20.90;67.60
81210;DHT22;70685;52.496;13.420;2023-08-06T12:00:23;20.90;68.10
81210;DHT22;70685;52.496;13.420;2023-08-06T12:02:49;20.80;67.70
81210;DHT22;70685;52.496;13.420;2023-08-06T12:05:18;20.80;68.90
81210;DHT22;70685;52.496;13.420;2023-08-06T12:07:49;20.70;68.00
81210;DHT22;70685;52.496;13.420;2023-08-06T12:10:15;20.70;68.30
81210;DHT22;70685;52.496;13.420;2023-08-06T12:12:41;20.70;68.70
81210;DHT22;70685;52.496;13.420;2023-08-06T12:15:08;20.70;69.10
81210;DHT22;70685;52.496;13.420;2023-08-06T12:17:35;20.80;68.00
81210;DHT22;70685;52.496;13.420;2023-08-06T12:20:01;20.80;68.70
81210;DHT22;70685;52.496;13.420;2023-08-06T12:22:27;20.80;68.00
81210;DHT22;70685;52.496;13.420;2023-08-06T12:24:53;20.70;68.70
81210;DHT22;70685;52.496;13.420;2023-08-06T12:27:21;20.60;69.30
81210;DHT22;70685;52.496;13.420;2023-08-06T12:29:49;20.60;69.30
81210;DHT22;70685;52.496;13.420;2023-08-06T12:32:20;20.50;68.60
81210;DHT22;70685;52.496;13.420;2023-08-06T12:34:45;20.40;68.70
81210;DHT22;70685;52.496;13.420;2023-08-06T12:37:11;20.30;69.30
81210;DHT22;70685;52.496;13.420;2023-08-06T12:39:37;20.20;69.60
81210;DHT22;70685;52.496;13.420;2023-08-06T12:42:04;20.00;70.50
81210;DHT22;70685;52.496;13.420;2023-08-06T12:44:31;19.90;71.20
81210;DHT22;70685;52.496;13.420;2023-08-06T12:46:57;19.90;71.50
81210;DHT22;70685;52.496;13.420;2023-08-06T12:49:24;19.80;72.40
81210;DHT22;70685;52.496;13.420;2023-08-06T12:51:52;19.80;72.20
81210;DHT22;70685;52.496;13.420;2023-08-06T12:54:22;19.80;72.90
81210;DHT22;70685;52.496;13.420;2023-08-06T12:56:48;19.90;72.20
81210;DHT22;70685;52.496;13.420;2023-08-06T12:59:15;20.00;72.10
81210;DHT22;70685;52.496;13.420;2023-08-06T13:01:41;20.00;71.70
81210;DHT22;70685;52.496;13.420;2023-08-06T13:04:07;19.90;71.50
81210;DHT22;70685;52.496;13.420;2023-08-06T13:06:35;19.90;72.50
81210;DHT22;70685;52.496;13.420;2023-08-06T13:09:11;19.90;72.20
81210;DHT22;70685;52.496;13.420;2023-08-06T13:11:40;19.90;72.00
81210;DHT22;70685;52.496;13.420;2023-08-06T13:14:09;19.90;71.70
81210;DHT22;70685;52.496;13.420;2023-08-06T13:16:36;19.80;71.80
81210;DHT22;70685;52.496;13.420;2023-08-06T13:19:02;19.60;72.70
81210;DHT22;70685;52.496;13.420;2023-08-06T13:21:35;19.60;72.80
81210;DHT22;70685;52.496;13.420;2023-08-06T13:24:19;19.60;72.60
81210;DHT22;70685;52.496;13.420;2023-08-06T13:26:49;19.60;73.10
81210;DHT22;70685;52.496;13.420;2023-08-06T13:29:25;19.50;72.90
81210;DHT22;70685;52.496;13.420;2023-08-06T13:31:51;19.50;73.40
81210;DHT22;70685;52.496;13.420;2023-08-06T13:34:17;19.40;74.40
81210;DHT22;70685;52.496;13.420;2023-08-06T13:36:45;19.20;73.80
81210;DHT22;70685;52.496;13.420;2023-08-06T13:39:13;19.10;74.60
81210;DHT22;70685;52.496;13.420;2023-08-06T13:41:44;19.10;75.90
81210;DHT22;70685;52.496;13.420;2023-08-06T13:44:10;19.00;76.60
81210;DHT22;70685;52.496;13.420;2023-08-06T13:46:38;19.00;76.30
81210;DHT22;70685;52.496;13.420;2023-08-06T13:49:04;19.00;76.10
81210;DHT22;70685;52.496;13.420;2023-08-06T13:51:34;19.10;76.20
81210;DHT22;70685;52.496;13.420;2023-08-06T13:54:01;19.10;76.50
81210;DHT22;70685;52.496;13.420;2023-08-06T13:56:29;19.10;75.90
81210;DHT22;70685;52.496;13.420;2023-08-06T13:58:55;19.00;75.50
81210;DHT22;70685;52.496;13.420;2023-08-06T14:01:21;19.10;76.00
81210;DHT22;70685;52.496;13.420;2023-08-06T14:03:46;19.10;75.70
81210;DHT22;70685;52.496;13.420;2023-08-06T14:06:12;19.00;75.80
81210;DHT22;70685;52.496;13.420;2023-08-06T14:08:38;19.00;76.60
81210;DHT22;70685;52.496;13.420;2023-08-06T14:11:04;19.00;77.50
81210;DHT22;70685;52.496;13.420;2023-08-06T14:13:31;19.00;77.80
81210;DHT22;70685;52.496;13.420;2023-08-06T14:15:57;19.10;77.30
81210;DHT22;70685;52.496;13.420;2023-08-06T14:18:22;19.10;77.70
81210;DHT22;70685;52.496;13.420;2023-08-06T14:20:50;19.10;76.70
81210;DHT22;70685;52.496;13.420;2023-08-06T14:23:16;19.00;77.10
81210;DHT22;70685;52.496;13.420;2023-08-06T14:25:41;19.10;77.50
81210;DHT22;70685;52.496;13.420;2023-08-06T14:28:07;19.10;77.60
81210;DHT22;70685;52.496;13.420;2023-08-06T14:30:33;19.00;77.60
81210;DHT22;70685;52.496;13.420;2023-08-06T14:32:59;19.10;77.70
81210;DHT22;70685;52.496;13.420;2023-08-06T14:35:26;19.10;75.90
81210;DHT22;70685;52.496;13.420;2023-08-06T14:37:52;19.00;76.30
81210;DHT22;70685;52.496;13.420;2023-08-06T14:40:17;19.00;75.40
81210;DHT22;70685;52.496;13.420;2023-08-06T14:42:45;19.00;76.20
81210;DHT22;70685;52.496;13.420;2023-08-06T14:45:13;18.90;74.80
81210;DHT22;70685;52.496;13.420;2023-08-06T14:47:39;18.90;75.80
81210;DHT22;70685;52.496;13.420;2023-08-06T14:50:05;18.90;76.40
81210;DHT22;70685;52.496;13.420;2023-08-06T14:52:33;18.80;76.40
81210;DHT22;70685;52.496;13.420;2023-08-06T14:55:00;18.90;77.00
81210;DHT22;70685;52.496;13.420;2023-08-06T14:57:29;18.90;76.90
81210;DHT22;70685;52.496;13.420;2023-08-06T14:59:57;18.90;77.10
81210;DHT22;70685;52.496;13.420;2023-08-06T15:02:23;19.00;77.60
81210;DHT22;70685;52.496;13.420;2023-08-06T15:04:49;19.00;76.80
81210;DHT22;70685;52.496;13.420;2023-08-06T15:07:15;19.10;75.50
81210;DHT22;70685;52.496;13.420;2023-08-06T15:09:48;19.20;75.00
81210;DHT22;70685;52.496;13.420;2023-08-06T15:12:18;19.20;75.30
81210;DHT22;70685;52.496;13.420;2023-08-06T15:14:46;19.30;75.30
81210;DHT22;70685;52.496;13.420;2023-08-06T15:17:12;19.40;74.30
81210;DHT22;70685;52.496;13.420;2023-08-06T15:19:38;19.40;73.80
81210;DHT22;70685;52.496;13.420;2023-08-06T15:22:03;19.40;73.00
81210;DHT22;70685;52.496;13.420;2023-08-06T15:24:29;19.40;72.70
81210;DHT22;70685;52.496;13.420;2023-08-06T15:26:55;19.30;72.50
81210;DHT22;70685;52.496;13.420;2023-08-06T15:29:23;19.30;71.40
81210;DHT22;70685;52.496;13.420;2023-08-06T15:31:51;19.40;72.40
81210;DHT22;70685;52.496;13.420;2023-08-06T15:34:17;19.30;71.20
81210;DHT22;70685;52.496;13.420;2023-08-06T15:36:43;19.40;71.00